EDT,Max TemperatureF,Mean TemperatureF,Min TemperatureF,Max Dew PointF,MeanDew PointF,Min DewpointF,Max Humidity, Mean Humidity, Min Humidity, Max Sea Level PressureIn, Mean Sea Level PressureIn, Min Sea Level PressureIn, Max VisibilityMiles, Mean VisibilityMiles, Min VisibilityMiles, Max Wind SpeedMPH, Mean Wind SpeedMPH, Max Gust SpeedMPH,PrecipitationIn, CloudCover, Events, WindDirDegrees
2013-5-1,73,65,57,64,61,57,100,91,64,30.20,30.15,30.10,10,10,10,15,8,20,0.00,6,,34
2013-5-2,71,66,62,64,62,57,100,90,78,30.22,30.18,30.15,10,10,7,21,14,29,0.00,6,,53
2013-5-3,66,62,57,63,57,46,100,87,59,30.14,30.10,30.07,10,9,2,21,13,31,0.00,7,Rain,48
2013-5-4,62,58,53,59,56,52,100,91,77,30.06,30.01,29.95,10,10,10,24,16,32,0.00,7,Rain,52
2013-5-5,71,66,60,64,62,59,100,93,73,29.96,29.89,29.83,10,9,4,21,15,31,0.00,8,Rain-Thunderstorm,84
2013-5-6,73,63,53,64,58,50,100,82,44,29.93,29.88,29.84,10,8,0,16,8,24,0.00,3,Fog-Rain-Thunderstorm,199
2013-5-7,68,60,51,61,55,50,100,90,59,30.01,29.95,29.91,10,10,1,12,4,16,0.00,5,Rain-Thunderstorm,225
2013-5-8,77,64,50,61,56,50,100,80,47,30.06,30.01,29.97,10,10,2,14,5,23,0.00,2,,215
2013-5-9,82,70,59,64,61,55,100,69,39,30.12,30.07,30.02,10,10,10,9,6,16,0.00,2,,239
2013-5-10,84,72,59,64,62,59,100,75,45,30.12,30.08,30.03,10,10,10,16,5,21,0.00,0,,205
2013-5-11,82,75,68,72,66,55,100,79,39,30.05,29.96,29.89,10,10,10,14,8,20,0.00,1,,207
2013-5-12,80,68,57,70,60,50,100,67,36,30.00,29.91,29.85,10,10,10,17,7,23,0.00,3,,267
2013-5-13,71,60,50,54,44,39,100,57,31,30.16,30.08,30.00,10,10,10,15,6,22,0.00,0,,343
2013-5-14,69,56,44,54,46,43,100,67,38,30.28,30.21,30.15,10,10,10,13,4,20,0.00,0,,131
2013-5-15,84,68,51,63,57,52,100,70,40,30.19,30.11,30.02,10,10,10,17,7,23,0.00,0,,217
2013-5-16,86,74,62,70,63,59,100,72,45,30.07,30.03,30.00,10,10,10,13,9,17,0.00,0,,232
2013-5-17,87,74,62,68,64,63,100,75,45,30.13,30.09,30.05,10,10,10,13,7,16,0.00,0,,223
2013-5-18,82,72,62,72,65,55,100,80,39,30.19,30.14,30.11,10,10,10,13,5,17,0.00,1,,183
2013-5-19,82,75,68,70,69,64,100,88,65,30.17,30.12,30.10,10,10,10,14,5,18,0.00,4,Rain,159
2013-5-20,77,72,68,73,71,68,100,99,83,30.15,30.11,30.06,10,9,2,14,5,20,0.30,4,Rain-Thunderstorm,162
2013-5-21,77,70,64,72,69,64,100,95,74,30.11,30.06,30.02,10,8,0,9,3,,0.09,4,Fog-Rain-Thunderstorm,178
2013-5-22,82,72,62,73,68,63,100,87,65,30.05,30.01,29.96,10,8,0,15,4,16,0.00,2,Fog-Rain-Thunderstorm,133
2013-5-23,82,72,62,77,69,63,100,91,66,29.99,29.93,29.86,10,8,0,15,3,22,0.34,4,Fog-Rain-Thunderstorm,177
2013-5-24,80,70,60,70,59,43,100,69,32,30.19,29.97,29.85,10,10,10,16,8,24,0.00,1,,307
2013-5-25,77,64,51,54,45,39,94,56,27,30.31,30.23,30.18,10,10,10,14,6,21,0.00,0,,339
2013-5-26,78,66,53,64,58,54,100,80,44,30.28,30.22,30.18,10,10,10,13,4,17,0.00,1,,237
2013-5-27,78,68,57,70,63,57,100,83,61,30.27,30.24,30.20,10,10,7,13,3,17,0.00,2,,121
2013-5-28,80,70,59,70,64,59,100,80,54,30.28,30.24,30.21,10,10,2,14,4,18,0.00,1,,147
2013-5-29,82,71,60,72,66,61,100,83,58,30.29,30.24,30.18,10,10,7,14,3,16,0.00,3,,125
2013-5-30,82,71,60,72,68,61,100,86,66,30.29,30.24,30.21,10,10,5,14,3,17,0.00,1,,120
2013-5-31,84,74,64,75,69,64,100,85,58,30.25,30.21,30.16,10,9,0,13,3,18,0.00,2,Fog-Rain,155